Time;durP1;ratioP1;P1;durP2;ratioP2;P2;SDS_P1;SDS_P2;PMS_P1;PMS_P2;Temp;Humidity;BMP_temperature;BMP_pressure;BME280_temperature;BME280_humidity;BME280_pressure;Samples;Min_cycle;Max_cycle;Signal;HPM_P1;HPM_P2
2022/12/08 00:01:07;;;;;;;24.85;18.45;;;;;;;;;;6172740;23;20152;-81
2022/12/08 00:03:33;;;;;;;22.60;16.15;;;;;;;;;;6176041;23;20174;-81
2022/12/08 00:11:30;;;;;;;21.33;16.92;;;;;;;;;;6174645;23;20162;-81
2022/12/08 00:13:56;;;;;;;26.20;19.85;;;;;;;;;;6146238;23;20148;-80
2022/12/08 00:16:22;;;;;;;20.97;17.53;;;;;;;;;;6176817;23;20480;-81
2022/12/08 00:18:48;;;;;;;28.10;19.63;;;;;;;;;;6176229;23;20383;-79
2022/12/08 00:21:14;;;;;;;25.15;20.92;;;;;;;;;;6169529;23;20436;-79
2022/12/08 00:23:40;;;;;;;25.65;18.70;;;;;;;;;;6176527;23;20218;-79
2022/12/08 00:26:06;;;;;;;26.63;20.27;;;;;;;;;;6173958;23;20176;-80
2022/12/08 00:28:33;;;;;;;23.95;19.55;;;;;;;;;;6177330;23;20884;-80
2022/12/08 00:30:59;;;;;;;25.83;19.93;;;;;;;;;;6147194;23;20186;-80
2022/12/08 00:33:32;;;;;;;23.20;20.20;;;;;;;;;;6177986;23;20566;-81
2022/12/08 00:36:09;;;;;;;22.80;19.55;;;;;;;;;;6175295;23;20147;-80
2022/12/08 00:38:35;;;;;;;24.95;19.17;;;;;;;;;;6176983;23;20151;-81
2022/12/08 00:41:02;;;;;;;27.50;22.00;;;;;;;;;;6147045;23;20214;-80
2022/12/08 00:43:28;;;;;;;30.33;21.63;;;;;;;;;;6176921;23;20431;-80
2022/12/08 00:45:54;;;;;;;23.23;20.13;;;;;;;;;;6173753;23;20384;-80
2022/12/08 00:48:20;;;;;;;30.40;20.75;;;;;;;;;;6150385;23;20163;-80
2022/12/08 00:50:49;;;;;;;25.33;19.58;;;;;;;;;;6174932;23;20152;-80
2022/12/08 00:53:15;;;;;;;22.55;19.00;;;;;;;;;;6148162;23;20231;-80
2022/12/08 00:55:42;;;;;;;24.60;18.53;;;;;;;;;;6150742;23;20250;-82
2022/12/08 00:58:08;;;;;;;23.40;20.40;;;;;;;;;;6171757;23;20386;-81
2022/12/08 01:00:34;;;;;;;27.80;21.10;;;;;;;;;;6147967;23;20683;-81
2022/12/08 01:03:00;;;;;;;21.00;18.70;;;;;;;;;;6144579;23;20379;-81
2022/12/08 01:05:26;;;;;;;21.98;18.90;;;;;;;;;;6176321;23;20447;-82
2022/12/08 01:07:52;;;;;;;25.33;20.10;;;;;;;;;;6174189;23;20203;-81
2022/12/08 01:10:21;;;;;;;27.40;19.40;;;;;;;;;;6176633;23;20384;-81
2022/12/08 01:12:47;;;;;;;25.83;20.02;;;;;;;;;;6148303;23;20198;-81
2022/12/08 01:15:14;;;;;;;22.80;16.67;;;;;;;;;;6177202;23;20164;-81
2022/12/08 01:17:40;;;;;;;27.05;19.25;;;;;;;;;;6174906;23;20164;-81
2022/12/08 01:20:06;;;;;;;25.52;19.00;;;;;;;;;;6175814;23;20488;-81
2022/12/08 01:22:34;;;;;;;29.02;19.95;;;;;;;;;;6173265;23;20152;-81
2022/12/08 01:25:00;;;;;;;31.42;21.63;;;;;;;;;;6149038;23;20656;-81
2022/12/08 01:27:26;;;;;;;32.20;20.42;;;;;;;;;;6172624;23;20167;-80
2022/12/08 01:29:52;;;;;;;25.75;19.40;;;;;;;;;;6149274;23;20183;-81
2022/12/08 01:32:18;;;;;;;27.47;19.70;;;;;;;;;;6172815;23;20152;-81
2022/12/08 01:34:44;;;;;;;25.55;18.73;;;;;;;;;;6175803;23;20387;-81
2022/12/08 01:37:11;;;;;;;23.83;15.70;;;;;;;;;;6174548;23;20549;-80
2022/12/08 01:39:39;;;;;;;20.73;18.08;;;;;;;;;;6150015;23;20421;-81
2022/12/08 01:42:05;;;;;;;21.00;18.60;;;;;;;;;;6173957;23;20163;-82
2022/12/08 01:44:37;;;;;;;31.85;17.83;;;;;;;;;;6176555;23;20190;-81
2022/12/08 01:47:04;;;;;;;33.40;21.17;;;;;;;;;;6172906;23;20168;-80
2022/12/08 01:49:32;;;;;;;25.95;17.98;;;;;;;;;;6176534;23;20617;-81
2022/12/08 01:52:01;;;;;;;29.45;19.13;;;;;;;;;;6147264;23;20271;-80
2022/12/08 01:54:30;;;;;;;32.63;22.35;;;;;;;;;;6172169;23;20153;-81
2022/12/08 01:57:05;;;;;;;28.23;19.40;;;;;;;;;;6174043;23;20160;-81
2022/12/08 01:59:32;;;;;;;31.10;20.92;;;;;;;;;;6150226;23;20151;-78
2022/12/08 02:01:58;;;;;;;29.05;19.73;;;;;;;;;;6172877;23;20593;-80
2022/12/08 02:04:24;;;;;;;33.42;21.67;;;;;;;;;;6177143;23;20601;-80
2022/12/08 02:06:51;;;;;;;25.02;16.77;;;;;;;;;;6163077;23;20178;-80
2022/12/08 02:09:18;;;;;;;31.42;21.08;;;;;;;;;;6193349;23;20151;-80
2022/12/08 02:11:44;;;;;;;31.63;20.50;;;;;;;;;;6165176;23;20194;-79
2022/12/08 02:14:11;;;;;;;32.77;22.07;;;;;;;;;;6187546;23;20234;-78
2022/12/08 02:17:01;;;;;;;26.55;19.35;;;;;;;;;;6174777;23;20467;-80
2022/12/08 02:19:30;;;;;;;22.63;16.20;;;;;;;;;;6152409;23;20164;-79
2022/12/08 02:22:08;;;;;;;30.20;20.20;;;;;;;;;;6175401;23;20159;-80
2022/12/08 02:24:40;;;;;;;31.43;19.67;;;;;;;;;;6177103;23;20387;-79
2022/12/08 02:27:05;;;;;;;31.50;18.00;;;;;;;;;;6172857;23;20399;-81
2022/12/08 02:29:34;;;;;;;22.93;16.23;;;;;;;;;;6175680;23;20422;-78
2022/12/08 02:32:18;;;;;;;27.48;17.20;;;;;;;;;;6145755;23;20402;-78
2022/12/08 02:34:56;;;;;;;34.15;19.75;;;;;;;;;;6148952;23;20164;-79
2022/12/08 02:37:40;;;;;;;31.50;21.42;;;;;;;;;;6145340;23;20148;-80
2022/12/08 02:40:07;;;;;;;30.58;19.27;;;;;;;;;;6173954;23;20231;-80
2022/12/08 02:42:42;;;;;;;27.73;19.42;;;;;;;;;;6175403;23;20148;-80
2022/12/08 02:45:16;;;;;;;27.77;18.67;;;;;;;;;;6171409;23;20140;-80
2022/12/08 02:47:43;;;;;;;25.95;18.73;;;;;;;;;;6176088;23;20203;-80
2022/12/08 02:50:09;;;;;;;35.20;20.88;;;;;;;;;;6145114;23;20152;-81
2022/12/08 02:52:42;;;;;;;34.78;21.42;;;;;;;;;;6170972;23;20762;-80
2022/12/08 02:55:11;;;;;;;28.83;20.60;;;;;;;;;;6145512;23;20148;-80
2022/12/08 02:57:37;;;;;;;28.02;17.65;;;;;;;;;;6176138;23;20585;-80
2022/12/08 03:00:10;;;;;;;29.52;19.52;;;;;;;;;;6172658;23;20230;-79
2022/12/08 03:02:52;;;;;;;31.08;19.33;;;;;;;;;;6178416;23;20146;-80
2022/12/08 03:05:37;;;;;;;31.45;20.23;;;;;;;;;;6175209;23;20195;-80
2022/12/08 03:08:18;;;;;;;29.80;20.80;;;;;;;;;;6151201;23;20179;-79
2022/12/08 03:10:52;;;;;;;31.50;20.85;;;;;;;;;;6173672;23;20581;-80
2022/12/08 03:13:20;;;;;;;32.65;19.65;;;;;;;;;;6177523;23;20233;-80
2022/12/08 03:15:50;;;;;;;30.38;19.80;;;;;;;;;;6173668;23;20152;-79
2022/12/08 03:18:18;;;;;;;23.58;16.42;;;;;;;;;;6150857;23;20159;-82
2022/12/08 03:20:45;;;;;;;15.27;11.32;;;;;;;;;;6147146;23;20210;-80
2022/12/08 03:23:14;;;;;;;32.78;20.17;;;;;;;;;;6177787;23;20148;-81
2022/12/08 03:25:48;;;;;;;28.83;19.33;;;;;;;;;;6175185;23;20223;-80
2022/12/08 03:28:14;;;;;;;23.63;18.83;;;;;;;;;;6177393;23;20219;-80
2022/12/08 03:30:42;;;;;;;28.80;18.60;;;;;;;;;;6173267;23;20156;-80
2022/12/08 03:33:20;;;;;;;31.38;19.63;;;;;;;;;;6177909;23;20375;-80
2022/12/08 03:35:46;;;;;;;23.75;15.98;;;;;;;;;;6173734;23;20578;-80
2022/12/08 03:38:14;;;;;;;27.48;16.35;;;;;;;;;;6176842;23;20156;-80
2022/12/08 03:40:41;;;;;;;23.77;15.18;;;;;;;;;;6144992;23;20238;-81
2022/12/08 03:43:07;;;;;;;27.15;18.00;;;;;;;;;;6177388;23;20144;-80
2022/12/08 03:45:33;;;;;;;25.20;15.80;;;;;;;;;;6174123;23;20223;-81
2022/12/08 03:47:59;;;;;;;24.25;15.02;;;;;;;;;;6176763;23;20251;-80
2022/12/08 03:50:25;;;;;;;26.80;18.02;;;;;;;;;;6173683;23;20152;-81
2022/12/08 03:52:51;;;;;;;21.80;14.60;;;;;;;;;;6172862;23;20156;-81
2022/12/08 03:55:18;;;;;;;24.05;15.32;;;;;;;;;;6147559;23;20175;-80
2022/12/08 03:57:44;;;;;;;25.83;17.17;;;;;;;;;;6150829;23;20235;-79
2022/12/08 04:00:13;;;;;;;17.58;14.00;;;;;;;;;;6173206;23;20206;-79
2022/12/08 04:02:39;;;;;;;24.33;16.90;;;;;;;;;;6176986;23;20236;-80
2022/12/08 04:05:05;;;;;;;20.83;15.50;;;;;;;;;;6146965;23;20194;-80
2022/12/08 04:07:31;;;;;;;22.10;16.23;;;;;;;;;;6150220;23;20431;-80
2022/12/08 04:09:57;;;;;;;25.17;17.47;;;;;;;;;;6173120;23;20158;-80
2022/12/08 04:12:23;;;;;;;20.60;13.70;;;;;;;;;;6176880;23;20442;-80
2022/12/08 04:14:49;;;;;;;20.33;15.87;;;;;;;;;;6146512;23;20399;-79
2022/12/08 04:17:15;;;;;;;27.73;16.63;;;;;;;;;;6150262;23;20395;-78
2022/12/08 04:19:41;;;;;;;15.55;12.48;;;;;;;;;;6146833;23;20419;-78
2022/12/08 04:22:07;;;;;;;20.60;14.57;;;;;;;;;;6176537;23;20152;-78
2022/12/08 04:24:33;;;;;;;23.27;15.55;;;;;;;;;;6172904;23;20233;-78
2022/12/08 04:26:59;;;;;;;22.45;15.00;;;;;;;;;;6177046;23;20172;-83
2022/12/08 04:29:25;;;;;;;23.25;14.35;;;;;;;;;;6176461;23;20172;-81
2022/12/08 04:31:51;;;;;;;23.10;15.77;;;;;;;;;;6174692;23;20500;-79
2022/12/08 04:34:17;;;;;;;22.77;14.23;;;;;;;;;;6148640;23;20395;-79
2022/12/08 04:36:43;;;;;;;20.27;14.48;;;;;;;;;;6145511;23;20160;-78
2022/12/08 04:39:09;;;;;;;17.80;13.57;;;;;;;;;;6175507;23;20148;-78
2022/12/08 04:41:35;;;;;;;17.38;13.70;;;;;;;;;;6171523;23;20443;-77
2022/12/08 04:44:01;;;;;;;22.13;15.38;;;;;;;;;;6175087;23;20507;-78
2022/12/08 04:46:27;;;;;;;21.98;15.27;;;;;;;;;;6170752;23;20211;-78
2022/12/08 04:48:53;;;;;;;20.80;13.50;;;;;;;;;;6146987;23;20156;-78
2022/12/08 04:51:20;;;;;;;19.42;13.80;;;;;;;;;;6170167;23;20375;-78
2022/12/08 04:53:46;;;;;;;14.43;11.77;;;;;;;;;;6170134;23;20163;-78
2022/12/08 04:56:16;;;;;;;23.05;15.20;;;;;;;;;;6172522;23;20152;-78
2022/12/08 04:58:46;;;;;;;21.30;14.95;;;;;;;;;;6147292;23;20164;-78
2022/12/08 05:01:12;;;;;;;24.95;16.23;;;;;;;;;;6172940;23;20152;-77
2022/12/08 05:03:38;;;;;;;19.58;14.25;;;;;;;;;;6175758;23;20152;-77
2022/12/08 05:06:07;;;;;;;23.10;15.90;;;;;;;;;;6172418;23;20594;-77
2022/12/08 05:08:33;;;;;;;24.92;15.93;;;;;;;;;;6149499;23;21100;-77
2022/12/08 05:11:03;;;;;;;21.25;13.85;;;;;;;;;;6171948;23;20152;-77
2022/12/08 05:13:30;;;;;;;19.83;14.57;;;;;;;;;;6148608;23;20193;-78
2022/12/08 05:16:01;;;;;;;9.13;7.25;;;;;;;;;;6145550;23;20238;-77
2022/12/08 05:18:28;;;;;;;15.00;11.00;;;;;;;;;;6174523;23;20140;-78
2022/12/08 05:20:53;;;;;;;14.63;10.93;;;;;;;;;;6145945;23;20246;-78
2022/12/08 05:23:19;;;;;;;19.97;13.90;;;;;;;;;;6150414;23;20189;-78
2022/12/08 05:25:52;;;;;;;26.20;15.85;;;;;;;;;;6155607;23;20411;-88
2022/12/08 05:28:18;;;;;;;27.40;19.75;;;;;;;;;;6203399;23;20158;-86
2022/12/08 05:30:44;;;;;;;22.15;14.15;;;;;;;;;;6169258;23;20168;-79
2022/12/08 05:33:10;;;;;;;22.30;16.23;;;;;;;;;;6193648;23;20152;-79
2022/12/08 05:35:36;;;;;;;22.10;14.98;;;;;;;;;;6165551;23;20384;-78
2022/12/08 05:38:02;;;;;;;22.27;16.05;;;;;;;;;;6161645;23;20761;-77
2022/12/08 05:40:28;;;;;;;26.85;16.35;;;;;;;;;;6145171;23;20476;-78
2022/12/08 05:42:54;;;;;;;21.55;14.98;;;;;;;;;;6176302;23;20154;-79
2022/12/08 05:45:22;;;;;;;24.50;16.52;;;;;;;;;;6171312;23;20149;-78
2022/12/08 05:47:48;;;;;;;24.90;17.20;;;;;;;;;;6172378;23;20226;-78
2022/12/08 05:50:14;;;;;;;28.83;18.87;;;;;;;;;;6171100;23;20144;-78
2022/12/08 05:52:40;;;;;;;23.73;16.90;;;;;;;;;;6170772;23;20447;-79
2022/12/08 05:55:07;;;;;;;26.50;18.13;;;;;;;;;;6173565;23;20486;-78
2022/12/08 05:57:33;;;;;;;29.33;18.90;;;;;;;;;;6171089;23;20307;-79
2022/12/08 05:59:59;;;;;;;18.95;12.07;;;;;;;;;;6148852;23;20167;-78
2022/12/08 06:02:25;;;;;;;29.23;17.30;;;;;;;;;;6145933;23;20159;-79
2022/12/08 06:04:51;;;;;;;28.35;17.70;;;;;;;;;;6147442;23;20160;-77
2022/12/08 06:07:20;;;;;;;22.70;16.00;;;;;;;;;;6145256;23;20238;-77
2022/12/08 06:09:46;;;;;;;24.10;17.17;;;;;;;;;;6174651;23;20367;-78
2022/12/08 06:12:12;;;;;;;28.03;18.20;;;;;;;;;;6170718;23;20218;-78
2022/12/08 06:14:38;;;;;;;26.33;17.45;;;;;;;;;;6175721;23;20454;-78
2022/12/08 06:17:05;;;;;;;29.42;18.13;;;;;;;;;;6171084;23;20152;-77
2022/12/08 06:19:31;;;;;;;23.98;14.25;;;;;;;;;;6147793;23;20191;-79
2022/12/08 06:21:57;;;;;;;23.10;15.55;;;;;;;;;;6171513;23;20660;-79
2022/12/08 06:24:23;;;;;;;25.50;17.57;;;;;;;;;;6148239;23;20164;-78
2022/12/08 06:26:49;;;;;;;25.02;15.02;;;;;;;;;;6171187;23;20419;-78
2022/12/08 06:29:15;;;;;;;20.23;14.90;;;;;;;;;;6148140;23;20206;-77
2022/12/08 06:31:41;;;;;;;25.27;15.97;;;;;;;;;;6171217;23;20871;-79
2022/12/08 06:34:07;;;;;;;22.08;14.55;;;;;;;;;;6147880;23;20375;-78
2022/12/08 06:36:33;;;;;;;22.38;15.57;;;;;;;;;;6171503;23;20156;-78
2022/12/08 06:39:00;;;;;;;34.75;18.50;;;;;;;;;;6175300;23;20178;-78
2022/12/08 06:41:26;;;;;;;28.30;17.45;;;;;;;;;;6145129;23;20162;-77
2022/12/08 06:43:55;;;;;;;25.07;16.57;;;;;;;;;;6148198;23;20242;-78
2022/12/08 06:46:21;;;;;;;27.80;16.65;;;;;;;;;;6172061;23;20498;-78
2022/12/08 06:48:49;;;;;;;27.02;18.27;;;;;;;;;;6142700;23;20207;-78
2022/12/08 06:51:16;;;;;;;30.52;19.95;;;;;;;;;;6145249;23;20615;-79
2022/12/08 06:53:43;;;;;;;28.55;17.98;;;;;;;;;;6142075;23;20167;-78
2022/12/08 06:56:10;;;;;;;33.28;18.58;;;;;;;;;;6144836;23;20161;-79
2022/12/08 06:58:36;;;;;;;28.80;18.35;;;;;;;;;;6174614;23;20179;-79
2022/12/08 07:01:07;;;;;;;31.40;18.23;;;;;;;;;;6143898;23;20152;-77
2022/12/08 07:03:35;;;;;;;28.95;18.38;;;;;;;;;;6147818;23;20418;-77
2022/12/08 07:06:01;;;;;;;26.25;19.17;;;;;;;;;;6143255;23;20509;-77
2022/12/08 07:08:27;;;;;;;29.42;18.02;;;;;;;;;;6174188;23;20155;-79
2022/12/08 07:10:53;;;;;;;26.73;16.50;;;;;;;;;;6144862;23;20494;-78
2022/12/08 07:13:19;;;;;;;32.95;19.45;;;;;;;;;;6147169;23;20423;-78
2022/12/08 07:15:45;;;;;;;28.52;16.30;;;;;;;;;;6170432;23;20160;-79
2022/12/08 07:18:11;;;;;;;22.10;15.67;;;;;;;;;;6147712;23;20491;-78
2022/12/08 07:20:40;;;;;;;24.50;16.73;;;;;;;;;;6170503;23;20381;-77
2022/12/08 07:23:06;;;;;;;27.60;17.92;;;;;;;;;;6146526;23;20391;-77
2022/12/08 07:25:32;;;;;;;31.27;19.57;;;;;;;;;;6168478;23;20262;-78
2022/12/08 07:27:58;;;;;;;27.40;17.37;;;;;;;;;;6172208;23;20411;-78
2022/12/08 07:30:24;;;;;;;28.40;18.52;;;;;;;;;;6143411;23;20420;-77
2022/12/08 07:32:50;;;;;;;31.40;20.50;;;;;;;;;;6175222;23;20171;-79
2022/12/08 07:35:19;;;;;;;27.13;18.75;;;;;;;;;;6145044;23;20211;-78
2022/12/08 07:37:45;;;;;;;21.00;14.55;;;;;;;;;;6149224;23;20152;-79
2022/12/08 07:40:12;;;;;;;25.90;14.95;;;;;;;;;;6172194;23;20163;-79
2022/12/08 07:42:38;;;;;;;22.60;14.82;;;;;;;;;;6175340;23;20152;-77
2022/12/08 07:45:04;;;;;;;25.70;17.10;;;;;;;;;;6172271;23;20669;-80
2022/12/08 07:47:30;;;;;;;24.92;15.93;;;;;;;;;;6175321;23;20573;-78
2022/12/08 07:49:56;;;;;;;28.15;17.23;;;;;;;;;;6145426;23;20550;-79
2022/12/08 07:52:22;;;;;;;24.08;16.63;;;;;;;;;;6171569;23;20163;-80
2022/12/08 07:54:48;;;;;;;23.83;16.67;;;;;;;;;;6172261;23;20156;-79
2022/12/08 07:57:14;;;;;;;27.40;17.80;;;;;;;;;;6149114;23;20152;-79
2022/12/08 07:59:40;;;;;;;21.48;14.93;;;;;;;;;;6171571;23;20387;-78
2022/12/08 08:02:11;;;;;;;25.85;16.70;;;;;;;;;;6175321;23;20163;-78
2022/12/08 08:04:37;;;;;;;23.15;17.10;;;;;;;;;;6167967;23;20188;-78
2022/12/08 08:07:03;;;;;;;14.73;11.10;;;;;;;;;;6174580;23;20178;-77
2022/12/08 08:09:31;;;;;;;17.27;14.55;;;;;;;;;;6144868;23;20167;-80
2022/12/08 08:11:57;;;;;;;17.15;14.43;;;;;;;;;;6149450;23;20272;-79
2022/12/08 08:14:23;;;;;;;17.00;14.30;;;;;;;;;;6145622;23;20536;-79
2022/12/08 08:16:49;;;;;;;18.00;12.40;;;;;;;;;;6174771;23;20384;-77
2022/12/08 08:19:15;;;;;;;18.08;13.35;;;;;;;;;;6145430;23;20663;-80
2022/12/08 08:21:41;;;;;;;21.02;14.52;;;;;;;;;;6176820;23;20172;-77
2022/12/08 08:24:07;;;;;;;21.17;14.30;;;;;;;;;;6171568;23;20518;-79
2022/12/08 08:26:33;;;;;;;19.92;14.38;;;;;;;;;;6175678;23;20447;-81
2022/12/08 08:28:59;;;;;;;20.08;15.18;;;;;;;;;;6145676;23;20176;-80
2022/12/08 08:31:26;;;;;;;21.33;15.33;;;;;;;;;;6176754;23;20136;-79
2022/12/08 08:33:52;;;;;;;20.45;14.40;;;;;;;;;;6150764;23;20963;-78
2022/12/08 08:36:20;;;;;;;17.30;12.20;;;;;;;;;;6177263;23;20155;-78
2022/12/08 08:38:46;;;;;;;17.00;12.50;;;;;;;;;;6144567;23;20243;-78
2022/12/08 08:41:12;;;;;;;16.20;10.02;;;;;;;;;;6149452;23;20183;-79
2022/12/08 08:43:42;;;;;;;15.70;12.13;;;;;;;;;;6148955;23;20168;-80
2022/12/08 08:46:08;;;;;;;13.20;9.95;;;;;;;;;;6148160;23;20219;-80
2022/12/08 08:48:34;;;;;;;15.20;12.20;;;;;;;;;;6175847;23;20155;-80
2022/12/08 08:51:07;;;;;;;10.90;9.15;;;;;;;;;;6171770;23;20207;-80
2022/12/08 08:53:33;;;;;;;15.65;11.52;;;;;;;;;;6172955;23;20323;-79
2022/12/08 08:55:59;;;;;;;15.77;11.68;;;;;;;;;;6172069;23;20238;-82
2022/12/08 08:58:25;;;;;;;13.05;10.43;;;;;;;;;;6149212;23;20157;-81
2022/12/08 09:00:54;;;;;;;13.40;9.40;;;;;;;;;;6167561;23;20157;-79
2022/12/08 09:03:20;;;;;;;13.95;8.98;;;;;;;;;;6175916;23;20466;-80
2022/12/08 09:05:46;;;;;;;15.03;11.63;;;;;;;;;;6145626;23;20602;-80
2022/12/08 09:08:12;;;;;;;17.58;13.20;;;;;;;;;;6176809;23;20423;-80
2022/12/08 09:10:38;;;;;;;15.80;11.05;;;;;;;;;;6186250;23;20222;-78
2022/12/08 09:13:04;;;;;;;11.37;9.43;;;;;;;;;;6190542;23;20193;-81
2022/12/08 09:15:30;;;;;;;17.13;11.77;;;;;;;;;;6195121;23;20390;-79
2022/12/08 09:17:56;;;;;;;14.85;10.38;;;;;;;;;;6176838;23;20157;-81
2022/12/08 09:20:22;;;;;;;18.77;13.15;;;;;;;;;;6178672;23;20325;-79
2022/12/08 09:22:48;;;;;;;16.73;13.20;;;;;;;;;;6174461;23;20168;-80
2022/12/08 09:25:14;;;;;;;18.83;13.27;;;;;;;;;;6176380;23;20366;-77
2022/12/08 09:27:40;;;;;;;15.43;12.37;;;;;;;;;;6171855;23;20179;-79
2022/12/08 09:30:07;;;;;;;24.47;14.00;;;;;;;;;;6175467;23;20389;-79
2022/12/08 09:32:33;;;;;;;16.52;11.25;;;;;;;;;;6145122;23;20413;-81
2022/12/08 09:35:00;;;;;;;16.75;11.40;;;;;;;;;;6141727;23;20164;-82
2022/12/08 09:37:26;;;;;;;24.13;17.00;;;;;;;;;;6149886;23;20150;-82
2022/12/08 09:39:52;;;;;;;20.73;14.65;;;;;;;;;;6145703;23;20203;-82
2022/12/08 09:42:28;;;;;;;22.42;15.63;;;;;;;;;;6175348;23;20457;-79
2022/12/08 09:45:09;;;;;;;24.25;16.25;;;;;;;;;;6171623;23;20227;-79
2022/12/08 09:47:39;;;;;;;17.17;12.13;;;;;;;;;;6175565;23;20163;-79
2022/12/08 09:50:24;;;;;;;34.58;17.55;;;;;;;;;;6171712;23;20472;-81
2022/12/08 09:53:02;;;;;;;20.67;13.98;;;;;;;;;;6169990;23;20640;-81
2022/12/08 09:55:36;;;;;;;26.13;16.15;;;;;;;;;;6175198;23;20637;-78
2022/12/08 09:58:03;;;;;;;22.85;16.83;;;;;;;;;;6144847;23;20144;-81
2022/12/08 10:00:29;;;;;;;36.22;20.05;;;;;;;;;;6175374;23;20179;-78
2022/12/08 10:02:56;;;;;;;28.53;18.33;;;;;;;;;;6173405;23;20153;-79
2022/12/08 10:05:24;;;;;;;30.00;16.40;;;;;;;;;;6173174;23;20439;-81
2022/12/08 10:08:10;;;;;;;26.20;15.52;;;;;;;;;;6173481;23;20172;-80
2022/12/08 10:10:47;;;;;;;26.98;16.58;;;;;;;;;;6174880;23;20159;-80
2022/12/08 10:13:23;;;;;;;28.95;18.67;;;;;;;;;;6170540;23;20190;-79
2022/12/08 10:16:09;;;;;;;30.38;17.75;;;;;;;;;;6148479;23;20508;-79
2022/12/08 10:18:36;;;;;;;22.73;14.70;;;;;;;;;;6146005;23;20604;-81
2022/12/08 10:21:14;;;;;;;24.80;16.25;;;;;;;;;;6174378;23;20214;-81
2022/12/08 10:23:42;;;;;;;27.50;17.75;;;;;;;;;;6170302;23;20218;-81
2022/12/08 10:26:15;;;;;;;33.75;19.58;;;;;;;;;;6173912;23;20442;-80
2022/12/08 10:28:44;;;;;;;25.08;17.40;;;;;;;;;;6170861;23;20207;-80
2022/12/08 10:31:16;;;;;;;32.47;19.48;;;;;;;;;;6175467;23;20158;-79
2022/12/08 10:33:43;;;;;;;23.10;14.85;;;;;;;;;;6171481;23;20206;-78
2022/12/08 10:36:09;;;;;;;23.95;15.25;;;;;;;;;;6174411;23;20153;-80
2022/12/08 10:38:36;;;;;;;28.02;17.88;;;;;;;;;;6137569;23;20201;-78
2022/12/08 10:41:08;;;;;;;27.02;17.70;;;;;;;;;;6145139;23;20350;-78
2022/12/08 10:43:37;;;;;;;20.75;16.73;;;;;;;;;;6144153;23;20165;-78
2022/12/08 10:46:13;;;;;;;28.38;16.73;;;;;;;;;;6147335;23;20730;-78
2022/12/08 10:48:47;;;;;;;21.85;15.75;;;;;;;;;;6171964;23;20129;-79
2022/12/08 10:51:34;;;;;;;18.60;14.38;;;;;;;;;;6175348;23;20138;-78
2022/12/08 10:54:00;;;;;;;22.95;16.40;;;;;;;;;;6139013;23;20159;-79
2022/12/08 10:56:27;;;;;;;18.75;14.15;;;;;;;;;;6174283;23;20637;-80
2022/12/08 10:59:19;;;;;;;27.70;19.15;;;;;;;;;;6144558;23;20668;-80
2022/12/08 11:01:47;;;;;;;27.60;18.27;;;;;;;;;;6167880;23;20459;-77
2022/12/08 11:04:16;;;;;;;27.48;16.33;;;;;;;;;;6144249;23;20355;-79
2022/12/08 11:06:42;;;;;;;27.75;16.38;;;;;;;;;;6175990;23;20172;-81
2022/12/08 11:09:17;;;;;;;24.00;17.58;;;;;;;;;;6171945;23;20152;-78
2022/12/08 11:11:52;;;;;;;27.27;19.13;;;;;;;;;;6176321;23;20191;-78
2022/12/08 11:14:21;;;;;;;23.60;17.48;;;;;;;;;;6172224;23;20157;-78
2022/12/08 11:16:48;;;;;;;25.45;16.98;;;;;;;;;;6176062;23;20223;-79
2022/12/08 11:19:18;;;;;;;29.35;19.95;;;;;;;;;;6172005;23;20157;-78
2022/12/08 11:21:44;;;;;;;34.53;19.40;;;;;;;;;;6175855;23;20152;-78
2022/12/08 11:24:14;;;;;;;31.85;20.48;;;;;;;;;;6145278;23;20160;-79
2022/12/08 11:26:41;;;;;;;26.65;19.40;;;;;;;;;;6176042;23;20165;-79
2022/12/08 11:29:10;;;;;;;29.02;17.48;;;;;;;;;;6171830;23;20258;-79
2022/12/08 11:31:42;;;;;;;29.17;17.98;;;;;;;;;;6176156;23;20151;-78
2022/12/08 11:34:10;;;;;;;32.90;19.75;;;;;;;;;;6145214;23;20164;-80
2022/12/08 11:36:36;;;;;;;25.65;14.95;;;;;;;;;;6176341;23;20496;-81
2022/12/08 11:39:04;;;;;;;27.02;19.23;;;;;;;;;;6145354;23;20422;-80
2022/12/08 11:41:33;;;;;;;27.20;18.20;;;;;;;;;;6176810;23;20155;-79
2022/12/08 11:44:15;;;;;;;25.83;16.48;;;;;;;;;;6171770;23;20631;-80
2022/12/08 11:47:00;;;;;;;22.70;16.20;;;;;;;;;;6145421;23;20180;-81
2022/12/08 11:49:55;;;;;;;31.83;20.17;;;;;;;;;;6176689;23;20351;-82
2022/12/08 11:52:21;;;;;;;25.40;18.35;;;;;;;;;;6164032;23;20159;-78
2022/12/08 11:55:13;;;;;;;22.15;15.65;;;;;;;;;;6176386;23;20338;-82
2022/12/08 11:57:39;;;;;;;27.13;19.05;;;;;;;;;;6172790;23;20601;-81
2022/12/08 12:00:05;;;;;;;15.13;11.23;;;;;;;;;;6175130;23;20176;-80
2022/12/08 12:02:34;;;;;;;22.63;16.98;;;;;;;;;;6172070;23;20971;-80
2022/12/08 12:05:03;;;;;;;23.17;16.67;;;;;;;;;;6176532;23;20173;-85
2022/12/08 12:07:35;;;;;;;23.85;17.27;;;;;;;;;;6145090;23;20184;-82
2022/12/08 12:10:10;;;;;;;23.63;15.70;;;;;;;;;;6175252;23;20202;-81
2022/12/08 12:12:45;;;;;;;27.05;15.88;;;;;;;;;;6173661;23;20714;-79
2022/12/08 12:15:11;;;;;;;26.40;16.67;;;;;;;;;;6149596;23;20152;-80
2022/12/08 12:17:46;;;;;;;21.07;15.67;;;;;;;;;;6171935;23;20393;-78
2022/12/08 12:20:27;;;;;;;19.40;14.67;;;;;;;;;;6149849;23;20872;-82
2022/12/08 12:23:03;;;;;;;25.83;14.65;;;;;;;;;;6145582;23;20387;-81
2022/12/08 12:25:32;;;;;;;18.00;13.80;;;;;;;;;;6176132;23;20206;-81
2022/12/08 12:28:00;;;;;;;14.20;12.03;;;;;;;;;;6171875;23;20176;-78
2022/12/08 12:30:27;;;;;;;21.77;13.68;;;;;;;;;;6176685;23;20413;-79
2022/12/08 12:32:53;;;;;;;26.15;17.85;;;;;;;;;;6172105;23;20156;-81
2022/12/08 12:35:25;;;;;;;26.13;16.97;;;;;;;;;;6149303;23;20382;-81
2022/12/08 12:37:56;;;;;;;23.00;17.45;;;;;;;;;;6146020;23;20410;-79
2022/12/08 12:40:23;;;;;;;28.70;17.80;;;;;;;;;;6175901;23;20526;-79
2022/12/08 12:42:55;;;;;;;23.05;16.50;;;;;;;;;;6171451;23;20179;-82
2022/12/08 12:45:21;;;;;;;26.98;17.83;;;;;;;;;;6175460;23;20152;-80
2022/12/08 12:47:55;;;;;;;22.27;15.87;;;;;;;;;;6171520;23;20210;-79
2022/12/08 12:50:39;;;;;;;30.13;20.27;;;;;;;;;;6175157;23;20428;-78
2022/12/08 12:53:27;;;;;;;27.95;18.10;;;;;;;;;;6166726;23;20373;-81
2022/12/08 12:55:57;;;;;;;23.98;16.02;;;;;;;;;;6176631;23;20154;-79
2022/12/08 12:58:29;;;;;;;28.80;19.55;;;;;;;;;;6146096;23;20163;-80
2022/12/08 13:01:08;;;;;;;24.60;16.50;;;;;;;;;;6175759;23;20163;-82
2022/12/08 13:03:34;;;;;;;27.95;17.92;;;;;;;;;;6172135;23;20200;-80
2022/12/08 13:06:00;;;;;;;22.52;18.30;;;;;;;;;;6175712;23;20531;-79
2022/12/08 13:08:27;;;;;;;25.85;18.65;;;;;;;;;;6172340;23;20294;-80
2022/12/08 13:11:01;;;;;;;24.30;18.48;;;;;;;;;;6186294;23;20547;-79
2022/12/08 13:13:27;;;;;;;31.30;18.13;;;;;;;;;;6185238;23;20188;-80
2022/12/08 13:15:55;;;;;;;22.27;15.20;;;;;;;;;;6184048;23;20397;-80
2022/12/08 13:18:21;;;;;;;25.30;17.85;;;;;;;;;;6175493;23;20157;-79
2022/12/08 13:20:52;;;;;;;27.17;19.60;;;;;;;;;;6180372;23;20642;-79
2022/12/08 13:23:29;;;;;;;25.02;17.92;;;;;;;;;;6172680;23;20239;-81
2022/12/08 13:26:10;;;;;;;28.13;18.77;;;;;;;;;;6150124;23;20183;-81
2022/12/08 13:29:07;;;;;;;28.02;19.35;;;;;;;;;;6171662;23;20462;-80
2022/12/08 13:31:38;;;;;;;28.67;19.38;;;;;;;;;;6141938;23;20716;-78
2022/12/08 13:34:11;;;;;;;26.33;16.27;;;;;;;;;;6175180;23;20206;-79
2022/12/08 13:36:39;;;;;;;28.40;20.17;;;;;;;;;;6171342;23;20143;-81
2022/12/08 13:39:05;;;;;;;38.05;22.85;;;;;;;;;;6175135;23;20605;-80
2022/12/08 13:41:40;;;;;;;30.20;21.48;;;;;;;;;;6170975;23;20203;-80
2022/12/08 13:44:43;;;;;;;30.75;20.52;;;;;;;;;;6175368;23;20135;-80
2022/12/08 13:47:15;;;;;;;28.92;20.73;;;;;;;;;;6172216;23;20502;-81
2022/12/08 13:49:44;;;;;;;30.02;20.05;;;;;;;;;;6142385;23;20163;-82
2022/12/08 13:52:15;;;;;;;28.70;20.45;;;;;;;;;;6172029;23;20136;-81
2022/12/08 13:54:41;;;;;;;31.75;19.48;;;;;;;;;;6145445;23;20173;-81
2022/12/08 13:57:13;;;;;;;27.40;19.63;;;;;;;;;;6175098;23;20201;-81
2022/12/08 13:59:46;;;;;;;24.17;18.38;;;;;;;;;;6172387;23;20641;-80
2022/12/08 14:02:48;;;;;;;25.92;17.90;;;;;;;;;;6149016;23;20151;-81
2022/12/08 14:05:14;;;;;;;26.42;19.90;;;;;;;;;;6026598;23;20159;-82
2022/12/08 14:07:47;;;;;;;24.02;17.25;;;;;;;;;;6147687;23;20508;-82
2022/12/08 14:10:17;;;;;;;25.13;18.05;;;;;;;;;;6177491;23;20132;-81
2022/12/08 14:12:45;;;;;;;27.73;18.60;;;;;;;;;;6174962;23;20191;-83
2022/12/08 14:15:13;;;;;;;28.85;20.55;;;;;;;;;;6152941;23;20171;-83
2022/12/08 14:17:40;;;;;;;28.83;18.27;;;;;;;;;;6177481;23;20598;-81
2022/12/08 14:20:12;;;;;;;23.75;18.33;;;;;;;;;;6171954;23;20151;-83
2022/12/08 14:22:39;;;;;;;21.20;15.07;;;;;;;;;;6171318;23;20243;-83
2022/12/08 14:25:06;;;;;;;31.98;18.05;;;;;;;;;;6176607;23;20501;-84
2022/12/08 14:27:46;;;;;;;25.85;18.63;;;;;;;;;;6147797;23;20203;-83
2022/12/08 14:30:17;;;;;;;25.55;18.98;;;;;;;;;;6178008;23;20167;-84
2022/12/08 14:32:49;;;;;;;30.70;18.63;;;;;;;;;;6174443;23;20156;-86